Time;durP1;ratioP1;P1;durP2;ratioP2;P2;SDS_P1;SDS_P2;PMS_P1;PMS_P2;Temp;Humidity;BMP_temperature;BMP_pressure;BME280_temperature;BME280_humidity;BME280_pressure;Samples;Min_cycle;Max_cycle;Signal;HPM_P1;HPM_P2
2023/06/24 00:02:15;;;;;;;7.75;6.40;;;;;;;;;;5090314;27;99812;-77
2023/06/24 00:04:42;;;;;;;6.45;5.85;;;;;;;;;;5090708;27;98582;-77
2023/06/24 00:07:08;;;;;;;8.95;6.25;;;;;;;;;;5089970;27;99416;-77
2023/06/24 00:09:35;;;;;;;6.72;6.07;;;;;;;;;;5090543;27;99833;-78
2023/06/24 00:12:01;;;;;;;7.65;6.78;;;;;;;;;;5090570;27;98261;-77
2023/06/24 00:14:28;;;;;;;9.50;6.15;;;;;;;;;;5090113;27;99600;-77
2023/06/24 00:16:56;;;;;;;8.73;6.82;;;;;;;;;;5074155;27;99660;-78
2023/06/24 00:19:23;;;;;;;6.97;6.30;;;;;;;;;;5090002;27;98663;-78
2023/06/24 00:21:53;;;;;;;9.00;6.40;;;;;;;;;;5089036;27;99133;-78
2023/06/24 00:24:25;;;;;;;8.15;7.20;;;;;;;;;;5090323;27;98263;-78
2023/06/24 00:26:52;;;;;;;8.20;7.40;;;;;;;;;;5090784;27;99351;-79
2023/06/24 00:29:19;;;;;;;7.53;6.22;;;;;;;;;;5089996;27;99083;-78
2023/06/24 00:31:45;;;;;;;7.10;6.45;;;;;;;;;;5090828;27;98215;-79
2023/06/24 00:34:12;;;;;;;7.85;7.15;;;;;;;;;;5090655;27;99687;-77
2023/06/24 00:36:39;;;;;;;6.90;6.35;;;;;;;;;;5089771;27;99327;-79
2023/06/24 00:39:05;;;;;;;8.00;6.53;;;;;;;;;;5074865;27;98232;-79
2023/06/24 00:41:33;;;;;;;8.73;7.82;;;;;;;;;;5070899;27;101824;-77
2023/06/24 00:44:00;;;;;;;8.68;7.78;;;;;;;;;;5070722;27;98970;-78
2023/06/24 00:46:28;;;;;;;14.13;7.80;;;;;;;;;;5090779;27;98547;-77
2023/06/24 00:48:55;;;;;;;8.50;7.32;;;;;;;;;;5089608;27;99331;-77
2023/06/24 00:51:26;;;;;;;8.70;7.45;;;;;;;;;;5090460;27;98151;-77
2023/06/24 00:53:53;;;;;;;7.13;6.45;;;;;;;;;;5090796;27;98296;-77
2023/06/24 00:56:21;;;;;;;11.05;7.13;;;;;;;;;;5090500;27;98776;-78
2023/06/24 00:58:47;;;;;;;8.63;6.78;;;;;;;;;;5089728;27;98194;-77
2023/06/24 01:01:17;;;;;;;12.32;6.47;;;;;;;;;;5093050;27;98238;-77
2023/06/24 01:03:43;;;;;;;6.88;6.18;;;;;;;;;;5070762;27;98260;-77
2023/06/24 01:06:11;;;;;;;7.38;6.57;;;;;;;;;;5069613;27;100480;-77
2023/06/24 01:08:38;;;;;;;15.70;6.78;;;;;;;;;;5071003;27;99888;-78
2023/06/24 01:11:04;;;;;;;7.15;6.03;;;;;;;;;;5089165;27;98257;-78
2023/06/24 01:13:31;;;;;;;8.43;6.15;;;;;;;;;;5089983;27;99631;-78
2023/06/24 01:16:00;;;;;;;7.57;6.10;;;;;;;;;;5089342;27;99842;-78
2023/06/24 01:18:35;;;;;;;8.32;6.35;;;;;;;;;;5070413;27;98616;-78
2023/06/24 01:21:05;;;;;;;6.70;6.07;;;;;;;;;;5089749;27;98302;-77
2023/06/24 01:23:55;;;;;;;17.65;6.45;;;;;;;;;;5074709;27;99323;-78
2023/06/24 01:26:21;;;;;;;8.45;6.82;;;;;;;;;;5090336;27;98474;-78
2023/06/24 01:28:48;;;;;;;10.00;5.88;;;;;;;;;;5089755;27;98646;-78
2023/06/24 01:31:17;;;;;;;7.93;6.68;;;;;;;;;;5069734;27;98587;-78
2023/06/24 01:33:51;;;;;;;6.63;5.95;;;;;;;;;;5089686;27;99362;-77
2023/06/24 01:36:19;;;;;;;10.32;6.88;;;;;;;;;;5089211;27;99864;-78
2023/06/24 01:38:52;;;;;;;7.72;6.85;;;;;;;;;;5069427;27;98611;-77
2023/06/24 01:41:22;;;;;;;7.90;7.10;;;;;;;;;;5088525;27;98672;-76
2023/06/24 01:43:52;;;;;;;10.02;7.28;;;;;;;;;;5070721;27;102041;-79
2023/06/24 01:46:21;;;;;;;9.57;6.82;;;;;;;;;;5091049;27;99289;-78
2023/06/24 01:48:48;;;;;;;7.35;6.10;;;;;;;;;;5089549;27;98638;-78
2023/06/24 01:51:17;;;;;;;7.55;6.55;;;;;;;;;;5070800;27;99611;-76
2023/06/24 01:53:48;;;;;;;8.13;6.65;;;;;;;;;;5070014;27;99308;-77
2023/06/24 01:56:15;;;;;;;8.48;6.80;;;;;;;;;;5088449;27;99559;-76
2023/06/24 01:58:45;;;;;;;11.93;7.07;;;;;;;;;;5070049;27;98463;-78
2023/06/24 02:01:12;;;;;;;11.18;7.93;;;;;;;;;;5069797;27;101482;-77
2023/06/24 02:03:41;;;;;;;10.43;8.27;;;;;;;;;;5070458;27;101534;-77
2023/06/24 02:06:09;;;;;;;7.53;6.93;;;;;;;;;;5088355;27;98300;-77
2023/06/24 02:08:37;;;;;;;8.15;7.32;;;;;;;;;;5072800;27;98567;-77
2023/06/24 02:11:04;;;;;;;8.07;6.97;;;;;;;;;;5070378;27;98362;-77
2023/06/24 02:13:41;;;;;;;10.02;8.23;;;;;;;;;;5088485;27;100102;-77
2023/06/24 02:16:14;;;;;;;11.93;8.70;;;;;;;;;;5088542;27;100278;-77
2023/06/24 02:18:43;;;;;;;10.93;7.63;;;;;;;;;;5089178;27;98090;-77
2023/06/24 02:21:10;;;;;;;14.13;8.45;;;;;;;;;;5086990;27;98490;-78
2023/06/24 02:23:38;;;;;;;9.07;8.13;;;;;;;;;;5088315;27;98935;-78
2023/06/24 02:26:05;;;;;;;10.15;8.82;;;;;;;;;;5089375;27;98222;-78
2023/06/24 02:28:33;;;;;;;10.00;9.02;;;;;;;;;;5072941;27;100261;-77
2023/06/24 02:31:01;;;;;;;11.77;9.07;;;;;;;;;;5070578;27;98806;-77
2023/06/24 02:33:28;;;;;;;14.95;9.20;;;;;;;;;;5070244;27;100917;-77
2023/06/24 02:35:54;;;;;;;9.95;8.98;;;;;;;;;;5069324;27;99094;-78
2023/06/24 02:38:21;;;;;;;10.02;9.02;;;;;;;;;;5089281;27;98705;-79
2023/06/24 02:40:49;;;;;;;10.10;9.00;;;;;;;;;;5088905;27;98477;-78
2023/06/24 02:43:17;;;;;;;9.35;8.55;;;;;;;;;;5087197;27;99857;-78
2023/06/24 02:45:45;;;;;;;9.18;7.90;;;;;;;;;;5068482;27;98384;-78
2023/06/24 02:48:12;;;;;;;9.07;8.18;;;;;;;;;;5088419;27;98322;-78
2023/06/24 02:50:44;;;;;;;12.65;9.00;;;;;;;;;;5089947;27;98855;-78
2023/06/24 02:53:11;;;;;;;13.00;9.15;;;;;;;;;;5069626;27;101106;-78
2023/06/24 02:55:39;;;;;;;14.95;8.05;;;;;;;;;;5068789;27;101786;-78
2023/06/24 02:58:07;;;;;;;13.15;8.18;;;;;;;;;;5069189;27;98359;-78
2023/06/24 03:00:53;;;;;;;10.40;8.13;;;;;;;;;;5087943;27;98056;-78
2023/06/24 03:03:32;;;;;;;9.55;8.55;;;;;;;;;;5067925;27;101025;-78
2023/06/24 03:05:59;;;;;;;10.80;8.35;;;;;;;;;;5069368;27;98829;-78
2023/06/24 03:08:28;;;;;;;9.77;8.07;;;;;;;;;;5069423;27;100431;-78
2023/06/24 03:10:56;;;;;;;11.27;8.48;;;;;;;;;;5067255;27;100795;-79
2023/06/24 03:13:24;;;;;;;9.32;8.25;;;;;;;;;;5072919;27;98259;-77
2023/06/24 03:15:58;;;;;;;9.40;8.57;;;;;;;;;;5069013;27;99198;-78
2023/06/24 03:18:26;;;;;;;8.63;7.82;;;;;;;;;;5068769;27;98288;-78
2023/06/24 03:20:52;;;;;;;12.23;7.63;;;;;;;;;;5068846;27;101049;-78
2023/06/24 03:23:22;;;;;;;10.27;7.85;;;;;;;;;;5072166;27;99400;-78
2023/06/24 03:25:49;;;;;;;9.45;8.55;;;;;;;;;;5091198;27;98819;-78
2023/06/24 03:28:15;;;;;;;8.70;8.00;;;;;;;;;;5072890;27;98824;-77
2023/06/24 03:30:50;;;;;;;10.27;8.30;;;;;;;;;;5072248;27;99066;-78
2023/06/24 03:33:19;;;;;;;13.13;8.32;;;;;;;;;;5072541;27;98351;-78
2023/06/24 03:35:46;;;;;;;9.07;8.27;;;;;;;;;;5074747;27;100339;-78
2023/06/24 03:38:17;;;;;;;10.85;8.35;;;;;;;;;;5071791;27;98477;-78
2023/06/24 03:40:45;;;;;;;8.07;7.47;;;;;;;;;;5072958;27;98505;-78
2023/06/24 03:43:11;;;;;;;8.30;7.50;;;;;;;;;;5072298;27;100143;-79
2023/06/24 03:45:38;;;;;;;10.25;8.18;;;;;;;;;;5072282;27;98495;-77
2023/06/24 03:48:05;;;;;;;9.32;7.72;;;;;;;;;;5090138;27;98680;-77
2023/06/24 03:50:31;;;;;;;10.35;8.05;;;;;;;;;;5072823;27;101397;-79
2023/06/24 03:52:58;;;;;;;10.00;8.43;;;;;;;;;;5071505;27;98289;-78
2023/06/24 03:55:26;;;;;;;12.23;8.00;;;;;;;;;;5072672;27;98498;-78
2023/06/24 03:57:53;;;;;;;9.75;7.70;;;;;;;;;;5094775;27;98756;-78
2023/06/24 04:00:20;;;;;;;9.80;7.78;;;;;;;;;;5070737;27;100889;-78
2023/06/24 04:02:47;;;;;;;12.15;7.80;;;;;;;;;;5072083;27;101461;-77
2023/06/24 04:05:14;;;;;;;8.15;7.45;;;;;;;;;;5071706;27;98256;-76
2023/06/24 04:07:41;;;;;;;13.10;7.80;;;;;;;;;;5090286;27;98283;-78
2023/06/24 04:10:09;;;;;;;19.02;8.45;;;;;;;;;;5071746;27;101109;-78
2023/06/24 04:12:35;;;;;;;9.00;8.10;;;;;;;;;;5090922;27;98047;-78
2023/06/24 04:15:05;;;;;;;14.32;8.30;;;;;;;;;;5071464;27;99280;-78
2023/06/24 04:17:33;;;;;;;9.23;8.32;;;;;;;;;;5071721;27;100848;-78
2023/06/24 04:19:59;;;;;;;12.65;8.13;;;;;;;;;;5092855;27;98692;-78
2023/06/24 04:22:26;;;;;;;9.35;8.23;;;;;;;;;;5090543;27;99925;-78
2023/06/24 04:24:57;;;;;;;10.85;7.78;;;;;;;;;;5070992;27;98714;-78
2023/06/24 04:27:23;;;;;;;11.65;7.95;;;;;;;;;;5071267;27;101173;-77
2023/06/24 04:29:50;;;;;;;8.77;7.80;;;;;;;;;;5071501;27;99544;-78
2023/06/24 04:32:16;;;;;;;8.80;7.55;;;;;;;;;;5071744;27;98345;-78
2023/06/24 04:34:43;;;;;;;9.25;7.22;;;;;;;;;;5069196;27;100900;-78
2023/06/24 04:37:10;;;;;;;8.40;7.57;;;;;;;;;;5071450;27;101102;-78
2023/06/24 04:39:36;;;;;;;9.38;7.15;;;;;;;;;;5075387;27;98280;-78
2023/06/24 04:42:04;;;;;;;10.60;7.28;;;;;;;;;;5070995;27;102210;-78
2023/06/24 04:44:30;;;;;;;8.20;7.40;;;;;;;;;;5090573;27;98229;-78
2023/06/24 04:46:57;;;;;;;8.63;7.78;;;;;;;;;;5090088;27;99345;-78
2023/06/24 04:49:23;;;;;;;8.43;7.50;;;;;;;;;;5088778;27;99964;-78
2023/06/24 04:51:50;;;;;;;7.28;6.60;;;;;;;;;;5090290;27;98225;-78
2023/06/24 04:54:17;;;;;;;7.35;6.75;;;;;;;;;;5089477;27;98934;-78
2023/06/24 04:56:45;;;;;;;8.00;7.22;;;;;;;;;;5088742;27;99131;-77
2023/06/24 04:59:14;;;;;;;6.95;6.35;;;;;;;;;;5089310;27;98260;-76
2023/06/24 05:01:40;;;;;;;7.82;5.93;;;;;;;;;;5092791;27;98532;-78
2023/06/24 05:04:07;;;;;;;6.75;5.60;;;;;;;;;;5088818;27;98346;-79
2023/06/24 05:06:33;;;;;;;5.10;4.60;;;;;;;;;;5090302;27;99091;-77
2023/06/24 05:09:00;;;;;;;7.35;5.18;;;;;;;;;;5088188;27;99937;-76
2023/06/24 05:11:26;;;;;;;6.72;4.82;;;;;;;;;;5089101;27;98976;-78
2023/06/24 05:13:52;;;;;;;4.85;4.50;;;;;;;;;;5088694;27;98685;-78
2023/06/24 05:16:19;;;;;;;5.57;4.80;;;;;;;;;;5087789;27;98964;-79
2023/06/24 05:18:45;;;;;;;5.55;5.05;;;;;;;;;;5090056;27;98257;-77
2023/06/24 05:21:12;;;;;;;4.97;4.00;;;;;;;;;;5088910;27;98426;-77
2023/06/24 05:23:38;;;;;;;4.40;3.97;;;;;;;;;;5092026;27;100081;-78
2023/06/24 05:26:05;;;;;;;5.53;4.03;;;;;;;;;;5088923;27;98969;-78
2023/06/24 05:28:31;;;;;;;4.75;4.35;;;;;;;;;;5089279;27;99030;-78
2023/06/24 05:30:57;;;;;;;7.55;3.92;;;;;;;;;;5088867;27;98257;-78
2023/06/24 05:33:24;;;;;;;3.53;3.22;;;;;;;;;;5089697;27;99435;-78
2023/06/24 05:35:50;;;;;;;3.78;3.47;;;;;;;;;;5089315;27;99920;-78
2023/06/24 05:38:17;;;;;;;3.75;3.53;;;;;;;;;;5086860;27;98304;-77
2023/06/24 05:40:43;;;;;;;6.63;3.70;;;;;;;;;;5088868;27;98459;-77
2023/06/24 05:43:10;;;;;;;3.30;3.10;;;;;;;;;;5089090;27;99762;-77
2023/06/24 05:45:37;;;;;;;6.32;3.00;;;;;;;;;;5090782;27;98673;-78
2023/06/24 05:48:04;;;;;;;2.72;2.53;;;;;;;;;;5088798;27;99843;-77
2023/06/24 05:50:30;;;;;;;5.18;3.05;;;;;;;;;;5088335;27;98711;-78
2023/06/24 05:52:57;;;;;;;3.05;2.55;;;;;;;;;;5088314;27;99802;-77
2023/06/24 05:55:24;;;;;;;3.10;2.50;;;;;;;;;;5089340;27;99798;-78
2023/06/24 05:57:50;;;;;;;3.33;2.60;;;;;;;;;;5089246;27;98572;-78
2023/06/24 06:00:17;;;;;;;3.17;2.88;;;;;;;;;;5087372;27;98683;-78
2023/06/24 06:02:44;;;;;;;2.58;2.38;;;;;;;;;;5087967;27;98916;-78
2023/06/24 06:05:10;;;;;;;2.70;2.50;;;;;;;;;;5088680;27;98352;-78
2023/06/24 06:07:39;;;;;;;4.53;2.28;;;;;;;;;;5090695;27;98955;-78
2023/06/24 06:10:06;;;;;;;4.30;2.50;;;;;;;;;;5088860;27;98272;-78
2023/06/24 06:12:32;;;;;;;2.13;2.03;;;;;;;;;;5088344;27;99411;-78
2023/06/24 06:14:59;;;;;;;2.75;2.45;;;;;;;;;;5088500;27;99886;-78
2023/06/24 06:17:25;;;;;;;2.65;2.42;;;;;;;;;;5088997;27;98296;-78
2023/06/24 06:19:52;;;;;;;3.35;2.40;;;;;;;;;;5087677;27;98867;-78
2023/06/24 06:22:18;;;;;;;3.15;2.20;;;;;;;;;;5088947;27;99936;-77
2023/06/24 06:24:45;;;;;;;2.60;2.40;;;;;;;;;;5089196;27;99747;-78
2023/06/24 06:27:12;;;;;;;3.20;2.30;;;;;;;;;;5086254;27;98602;-78
2023/06/24 06:29:39;;;;;;;3.80;2.65;;;;;;;;;;5091499;27;98305;-77
2023/06/24 06:32:06;;;;;;;2.60;2.40;;;;;;;;;;5088000;27;98519;-77
2023/06/24 06:34:32;;;;;;;3.83;2.65;;;;;;;;;;5087698;27;100193;-77
2023/06/24 06:36:59;;;;;;;2.65;2.05;;;;;;;;;;5088397;27;98276;-75
2023/06/24 06:39:25;;;;;;;2.28;2.08;;;;;;;;;;5088205;27;98998;-77
2023/06/24 06:41:52;;;;;;;3.03;2.45;;;;;;;;;;5087806;27;99809;-78
2023/06/24 06:44:23;;;;;;;2.90;2.50;;;;;;;;;;5070065;27;98357;-78
2023/06/24 06:46:49;;;;;;;2.65;2.42;;;;;;;;;;5087938;27;98563;-76
2023/06/24 06:49:15;;;;;;;3.10;2.28;;;;;;;;;;5090737;27;100089;-76
2023/06/24 06:51:42;;;;;;;4.32;2.45;;;;;;;;;;5087069;27;98636;-76
2023/06/24 06:54:08;;;;;;;5.00;2.67;;;;;;;;;;5086938;27;98948;-76
2023/06/24 06:56:35;;;;;;;2.03;1.92;;;;;;;;;;5087324;27;98188;-76
2023/06/24 06:59:01;;;;;;;2.33;1.90;;;;;;;;;;5091898;27;99331;-76
2023/06/24 07:01:28;;;;;;;3.55;2.90;;;;;;;;;;5091767;27;99972;-76
2023/06/24 07:03:54;;;;;;;3.85;2.50;;;;;;;;;;5091601;27;98241;-76
2023/06/24 07:06:21;;;;;;;2.10;2.00;;;;;;;;;;5091810;27;98734;-76
2023/06/24 07:08:47;;;;;;;2.05;1.92;;;;;;;;;;5090165;27;99125;-76
2023/06/24 07:11:16;;;;;;;2.35;2.15;;;;;;;;;;5093972;27;98765;-76
2023/06/24 07:13:43;;;;;;;2.95;2.13;;;;;;;;;;5091659;27;100201;-76
2023/06/24 07:16:09;;;;;;;3.33;2.05;;;;;;;;;;5089765;27;98675;-76
2023/06/24 07:18:35;;;;;;;4.03;2.60;;;;;;;;;;5091625;27;99435;-76
2023/06/24 07:21:02;;;;;;;8.10;2.33;;;;;;;;;;5090228;27;99014;-76
2023/06/24 07:23:28;;;;;;;2.13;1.98;;;;;;;;;;5091010;27;97992;-76
2023/06/24 07:25:55;;;;;;;2.30;2.20;;;;;;;;;;5090055;27;98484;-76
2023/06/24 07:28:21;;;;;;;2.28;2.10;;;;;;;;;;5090996;27;98960;-77
2023/06/24 07:30:48;;;;;;;3.30;2.22;;;;;;;;;;5072474;27;98255;-76
2023/06/24 07:33:14;;;;;;;2.55;1.90;;;;;;;;;;5093924;27;98690;-76
2023/06/24 07:35:41;;;;;;;3.33;1.88;;;;;;;;;;5091614;27;98878;-76
2023/06/24 07:38:07;;;;;;;3.35;2.15;;;;;;;;;;5090422;27;99791;-75
2023/06/24 07:40:34;;;;;;;3.80;2.35;;;;;;;;;;5089857;27;100256;-75
2023/06/24 07:43:00;;;;;;;1.90;1.73;;;;;;;;;;5091021;27;98263;-75
2023/06/24 07:45:27;;;;;;;3.65;1.88;;;;;;;;;;5089777;27;98542;-75
2023/06/24 07:47:54;;;;;;;2.33;1.52;;;;;;;;;;5090001;27;99135;-75
2023/06/24 07:50:21;;;;;;;2.05;1.77;;;;;;;;;;5090810;27;98448;-75
2023/06/24 07:52:47;;;;;;;2.58;2.08;;;;;;;;;;5090499;27;99319;-75
2023/06/24 07:55:14;;;;;;;6.53;1.95;;;;;;;;;;5093691;27;100169;-75
2023/06/24 07:57:44;;;;;;;2.80;1.77;;;;;;;;;;5091305;27;99396;-75
2023/06/24 08:00:11;;;;;;;3.50;1.90;;;;;;;;;;5090186;27;100403;-75
2023/06/24 08:02:42;;;;;;;2.60;2.40;;;;;;;;;;5091164;27;98264;-75
2023/06/24 08:05:09;;;;;;;1.98;1.80;;;;;;;;;;5088943;27;99447;-75
2023/06/24 08:07:35;;;;;;;1.83;1.73;;;;;;;;;;5090401;27;100110;-76
2023/06/24 08:10:02;;;;;;;2.20;1.88;;;;;;;;;;5089576;27;98351;-75
2023/06/24 08:12:29;;;;;;;8.25;2.65;;;;;;;;;;5089236;27;98546;-76
2023/06/24 08:14:55;;;;;;;2.10;1.90;;;;;;;;;;5090155;27;98926;-75
2023/06/24 08:17:22;;;;;;;5.88;2.15;;;;;;;;;;5094174;27;98213;-77
2023/06/24 08:19:48;;;;;;;3.00;2.13;;;;;;;;;;5089795;27;99828;-77
2023/06/24 08:22:15;;;;;;;1.70;1.60;;;;;;;;;;5089794;27;100070;-76
2023/06/24 08:24:41;;;;;;;2.38;2.17;;;;;;;;;;5090565;27;99423;-76
2023/06/24 08:27:08;;;;;;;2.25;2.00;;;;;;;;;;5089375;27;101038;-77
2023/06/24 08:29:35;;;;;;;13.32;2.10;;;;;;;;;;5089808;27;98211;-77
2023/06/24 08:32:01;;;;;;;2.53;2.30;;;;;;;;;;5089273;27;98613;-76
2023/06/24 08:34:28;;;;;;;2.75;1.92;;;;;;;;;;5089360;27;98934;-75
2023/06/24 08:36:54;;;;;;;2.10;1.80;;;;;;;;;;5093403;27;98502;-77
2023/06/24 08:39:20;;;;;;;2.33;2.13;;;;;;;;;;5090211;27;100176;-76
2023/06/24 08:41:47;;;;;;;4.13;1.77;;;;;;;;;;5088919;27;98986;-77
2023/06/24 08:44:13;;;;;;;3.65;2.15;;;;;;;;;;5089954;27;99558;-77
2023/06/24 08:46:40;;;;;;;1.67;1.58;;;;;;;;;;5090210;27;100169;-76
2023/06/24 08:49:14;;;;;;;2.85;1.90;;;;;;;;;;5088997;27;98228;-77
2023/06/24 08:51:42;;;;;;;5.22;1.85;;;;;;;;;;5090039;27;100066;-77
2023/06/24 08:54:09;;;;;;;1.88;1.77;;;;;;;;;;5087861;27;100229;-76
2023/06/24 08:56:38;;;;;;;2.25;1.90;;;;;;;;;;5090418;27;98246;-76
2023/06/24 08:59:08;;;;;;;2.53;2.33;;;;;;;;;;5091776;27;98500;-75
2023/06/24 09:01:34;;;;;;;5.88;2.30;;;;;;;;;;5088148;27;98287;-75
2023/06/24 09:04:01;;;;;;;2.53;2.33;;;;;;;;;;5089642;27;99671;-76
2023/06/24 09:06:27;;;;;;;2.08;1.90;;;;;;;;;;5089612;27;99864;-76
2023/06/24 09:08:55;;;;;;;2.13;1.75;;;;;;;;;;5088923;27;98470;-76
2023/06/24 09:11:22;;;;;;;5.18;2.28;;;;;;;;;;5090337;27;99492;-76
2023/06/24 09:13:53;;;;;;;2.95;2.30;;;;;;;;;;5088673;27;99184;-76
2023/06/24 09:16:20;;;;;;;2.72;2.50;;;;;;;;;;5088792;27;98361;-76
2023/06/24 09:18:50;;;;;;;2.50;2.22;;;;;;;;;;5089010;27;99511;-76
2023/06/24 09:21:26;;;;;;;4.57;2.10;;;;;;;;;;5091248;27;99135;-76
2023/06/24 09:23:56;;;;;;;2.72;2.53;;;;;;;;;;5088763;27;99437;-75
2023/06/24 09:26:26;;;;;;;4.65;2.38;;;;;;;;;;5089595;27;99965;-76
2023/06/24 09:28:54;;;;;;;2.33;2.13;;;;;;;;;;5089587;27;98107;-76
2023/06/24 09:31:22;;;;;;;3.58;2.45;;;;;;;;;;5088128;27;98686;-76
2023/06/24 09:33:49;;;;;;;4.30;2.15;;;;;;;;;;5088823;27;98862;-76
2023/06/24 09:36:16;;;;;;;3.75;2.45;;;;;;;;;;5087941;27;98265;-76
2023/06/24 09:38:46;;;;;;;2.60;2.40;;;;;;;;;;5089485;27;99394;-76
2023/06/24 09:41:13;;;;;;;3.23;2.53;;;;;;;;;;5088590;27;101775;-75
2023/06/24 09:43:42;;;;;;;4.75;2.40;;;;;;;;;;5090561;27;98293;-74
2023/06/24 09:46:08;;;;;;;2.35;2.20;;;;;;;;;;5088690;27;99097;-74
2023/06/24 09:48:35;;;;;;;2.70;2.33;;;;;;;;;;5089565;27;98049;-74
2023/06/24 09:51:02;;;;;;;4.32;2.47;;;;;;;;;;5088405;27;99497;-74
2023/06/24 09:53:33;;;;;;;3.30;2.30;;;;;;;;;;5087734;27;99017;-74
2023/06/24 09:56:01;;;;;;;2.50;2.40;;;;;;;;;;5088027;27;98253;-75
2023/06/24 09:58:36;;;;;;;2.42;1.85;;;;;;;;;;5087448;27;99038;-75
2023/06/24 10:01:04;;;;;;;3.45;2.38;;;;;;;;;;5088788;27;100433;-75
2023/06/24 10:03:35;;;;;;;2.65;2.42;;;;;;;;;;5088441;27;98315;-75
2023/06/24 10:06:02;;;;;;;2.42;2.22;;;;;;;;;;5091287;27;99384;-76
2023/06/24 10:08:29;;;;;;;2.42;2.30;;;;;;;;;;5069401;27;98852;-74
2023/06/24 10:10:56;;;;;;;3.05;2.85;;;;;;;;;;5088644;27;99482;-74
2023/06/24 10:13:23;;;;;;;3.33;2.67;;;;;;;;;;5087787;27;98929;-75
2023/06/24 10:15:49;;;;;;;2.60;2.40;;;;;;;;;;5088680;27;98343;-74
2023/06/24 10:18:28;;;;;;;4.22;2.55;;;;;;;;;;5088545;27;99542;-77
2023/06/24 10:20:54;;;;;;;3.13;2.40;;;;;;;;;;5088134;27;99091;-76
2023/06/24 10:23:21;;;;;;;4.03;2.30;;;;;;;;;;5088686;27;98074;-77
2023/06/24 10:25:48;;;;;;;4.07;2.95;;;;;;;;;;5088182;27;99451;-74
2023/06/24 10:28:14;;;;;;;2.60;2.40;;;;;;;;;;5090528;27;98879;-74
2023/06/24 10:30:53;;;;;;;2.20;2.10;;;;;;;;;;5088169;27;98605;-74
2023/06/24 10:33:20;;;;;;;2.50;2.30;;;;;;;;;;5087207;27;102075;-75
2023/06/24 10:35:46;;;;;;;2.70;2.50;;;;;;;;;;5087797;27;98851;-74
2023/06/24 10:38:13;;;;;;;3.70;2.70;;;;;;;;;;5087841;27;98435;-75
2023/06/24 10:40:41;;;;;;;4.75;2.55;;;;;;;;;;5087178;27;99362;-75
2023/06/24 10:43:25;;;;;;;3.30;2.75;;;;;;;;;;5087772;27;98218;-75
2023/06/24 10:45:52;;;;;;;4.90;3.33;;;;;;;;;;5087843;27;98266;-75
2023/06/24 10:48:22;;;;;;;4.00;3.70;;;;;;;;;;5090588;27;100146;-77
2023/06/24 10:50:51;;;;;;;3.85;2.88;;;;;;;;;;5087713;27;98551;-74
2023/06/24 10:53:20;;;;;;;4.05;3.50;;;;;;;;;;5086888;27;98933;-75
2023/06/24 10:55:47;;;;;;;3.38;3.17;;;;;;;;;;5087230;27;98297;-74
2023/06/24 10:58:15;;;;;;;4.90;3.17;;;;;;;;;;5086559;27;98645;-74
2023/06/24 11:00:43;;;;;;;5.57;3.08;;;;;;;;;;5087596;27;100400;-75
2023/06/24 11:03:10;;;;;;;3.75;2.80;;;;;;;;;;5087945;27;98869;-76
2023/06/24 11:05:39;;;;;;;3.63;3.00;;;;;;;;;;5087649;27;98355;-76
2023/06/24 11:08:06;;;;;;;4.22;3.35;;;;;;;;;;5086797;27;100240;-76
2023/06/24 11:10:33;;;;;;;3.20;3.00;;;;;;;;;;5091613;27;98670;-76
2023/06/24 11:13:06;;;;;;;5.47;3.33;;;;;;;;;;5086598;27;99543;-76
2023/06/24 11:15:33;;;;;;;3.58;2.67;;;;;;;;;;5086587;27;98586;-76
2023/06/24 11:18:02;;;;;;;5.93;3.60;;;;;;;;;;5087022;27;98975;-76
2023/06/24 11:20:28;;;;;;;3.40;2.72;;;;;;;;;;5087273;27;98859;-76
2023/06/24 11:22:55;;;;;;;3.35;2.88;;;;;;;;;;5085544;27;98277;-76
2023/06/24 11:25:21;;;;;;;6.15;3.30;;;;;;;;;;5087941;27;99727;-76
2023/06/24 11:27:54;;;;;;;3.25;3.05;;;;;;;;;;5087648;27;100490;-76
2023/06/24 11:30:21;;;;;;;4.20;3.20;;;;;;;;;;5087065;27;98507;-75
2023/06/24 11:32:50;;;;;;;3.60;3.30;;;;;;;;;;5091078;27;99607;-75
2023/06/24 11:35:17;;;;;;;5.55;3.50;;;;;;;;;;5086692;27;98278;-75
2023/06/24 11:37:45;;;;;;;8.07;3.83;;;;;;;;;;5085929;27;98770;-76
2023/06/24 11:40:12;;;;;;;10.55;2.92;;;;;;;;;;5087032;27;99670;-76
2023/06/24 11:42:40;;;;;;;3.67;3.22;;;;;;;;;;5088271;27;98476;-76
2023/06/24 11:45:07;;;;;;;3.65;3.03;;;;;;;;;;5090272;27;99765;-75
2023/06/24 11:47:35;;;;;;;12.35;3.10;;;;;;;;;;5089157;27;98653;-76
2023/06/24 11:50:02;;;;;;;6.00;3.35;;;;;;;;;;5089646;27;98323;-75
2023/06/24 11:52:38;;;;;;;7.35;3.22;;;;;;;;;;5092457;27;98770;-75
2023/06/24 11:55:10;;;;;;;5.95;3.17;;;;;;;;;;5093437;27;99243;-75
2023/06/24 11:57:48;;;;;;;3.50;3.20;;;;;;;;;;5089006;27;98486;-76
2023/06/24 12:00:15;;;;;;;4.00;3.50;;;;;;;;;;5090857;27;100118;-76
2023/06/24 12:02:42;;;;;;;4.13;3.72;;;;;;;;;;5090044;27;98315;-75
2023/06/24 12:05:08;;;;;;;6.47;3.70;;;;;;;;;;5089470;27;98651;-76
2023/06/24 12:07:35;;;;;;;4.05;3.60;;;;;;;;;;5090273;27;99080;-76
2023/06/24 12:10:02;;;;;;;5.75;2.80;;;;;;;;;;5090395;27;98328;-76
2023/06/24 12:12:29;;;;;;;5.50;3.58;;;;;;;;;;5088364;27;98849;-75
2023/06/24 12:14:55;;;;;;;3.40;3.10;;;;;;;;;;5089762;27;98985;-75
2023/06/24 12:17:22;;;;;;;3.45;3.15;;;;;;;;;;5093272;27;98237;-75
2023/06/24 12:19:48;;;;;;;8.82;4.03;;;;;;;;;;5089216;27;99391;-75
2023/06/24 12:22:15;;;;;;;3.42;3.13;;;;;;;;;;5089409;27;98285;-76
2023/06/24 12:24:42;;;;;;;3.20;2.90;;;;;;;;;;5090821;27;99569;-75
2023/06/24 12:27:08;;;;;;;4.65;4.13;;;;;;;;;;5089021;27;99105;-76
2023/06/24 12:29:35;;;;;;;6.90;4.30;;;;;;;;;;5090975;27;98245;-76
2023/06/24 12:32:01;;;;;;;3.40;2.65;;;;;;;;;;5090266;27;99668;-76
2023/06/24 12:34:28;;;;;;;3.85;3.30;;;;;;;;;;5089389;27;99474;-76
2023/06/24 12:36:54;;;;;;;3.50;3.20;;;;;;;;;;5089718;27;98312;-76
2023/06/24 12:39:21;;;;;;;4.82;3.22;;;;;;;;;;5092232;27;98641;-75
2023/06/24 12:41:47;;;;;;;5.15;3.53;;;;;;;;;;5089383;27;98232;-74
2023/06/24 12:44:14;;;;;;;4.45;3.33;;;;;;;;;;5090012;27;99744;-75
2023/06/24 12:46:40;;;;;;;4.65;3.22;;;;;;;;;;5089016;27;100019;-75
2023/06/24 12:49:07;;;;;;;4.85;3.17;;;;;;;;;;5089973;27;98320;-75
2023/06/24 12:51:33;;;;;;;5.90;3.50;;;;;;;;;;5089768;27;98556;-75
2023/06/24 12:53:59;;;;;;;6.80;3.03;;;;;;;;;;5088591;27;100150;-75
2023/06/24 12:56:26;;;;;;;5.90;3.20;;;;;;;;;;5089694;27;98245;-75
2023/06/24 12:58:52;;;;;;;4.20;3.20;;;;;;;;;;5093347;27;99658;-74
2023/06/24 13:01:19;;;;;;;4.10;3.35;;;;;;;;;;5087519;27;98302;-74
2023/06/24 13:03:45;;;;;;;3.50;3.20;;;;;;;;;;5090177;27;99559;-74
2023/06/24 13:06:14;;;;;;;6.65;3.42;;;;;;;;;;5088821;27;98946;-75
2023/06/24 13:08:41;;;;;;;8.32;3.10;;;;;;;;;;5088619;27;98488;-75
2023/06/24 13:11:08;;;;;;;3.28;2.97;;;;;;;;;;5088643;27;98574;-75
2023/06/24 13:13:34;;;;;;;3.33;3.03;;;;;;;;;;5088905;27;99066;-75
2023/06/24 13:16:01;;;;;;;4.65;2.88;;;;;;;;;;5088156;27;98249;-75
2023/06/24 13:18:28;;;;;;;4.28;2.67;;;;;;;;;;5089713;27;98114;-75
2023/06/24 13:20:55;;;;;;;3.42;3.00;;;;;;;;;;5092340;27;99180;-75
2023/06/24 13:23:41;;;;;;;3.65;3.05;;;;;;;;;;5088648;27;98616;-74
2023/06/24 13:26:08;;;;;;;4.50;2.70;;;;;;;;;;5088520;27;100029;-75
2023/06/24 13:28:34;;;;;;;3.15;2.88;;;;;;;;;;5088557;27;98300;-76
2023/06/24 13:31:00;;;;;;;6.40;2.97;;;;;;;;;;5088376;27;98631;-76
2023/06/24 13:33:27;;;;;;;2.97;2.78;;;;;;;;;;5089374;27;100057;-75
2023/06/24 13:35:54;;;;;;;3.47;2.80;;;;;;;;;;5088730;27;98071;-74
2023/06/24 13:38:20;;;;;;;3.90;2.90;;;;;;;;;;5089219;27;98595;-75
2023/06/24 13:40:47;;;;;;;4.03;2.55;;;;;;;;;;5088092;27;99139;-76
2023/06/24 13:43:13;;;;;;;3.15;2.85;;;;;;;;;;5090773;27;98289;-75
2023/06/24 13:45:41;;;;;;;3.58;2.80;;;;;;;;;;5087896;27;98822;-75
2023/06/24 13:48:08;;;;;;;5.28;2.85;;;;;;;;;;5089030;27;98336;-75
2023/06/24 13:50:34;;;;;;;3.05;2.50;;;;;;;;;;5087737;27;99363;-75
2023/06/24 13:53:01;;;;;;;3.20;2.63;;;;;;;;;;5088968;27;99919;-76
2023/06/24 13:55:28;;;;;;;3.60;2.80;;;;;;;;;;5089269;27;98262;-75
2023/06/24 13:57:54;;;;;;;2.95;2.63;;;;;;;;;;5087436;27;98475;-75
2023/06/24 14:00:21;;;;;;;3.90;3.40;;;;;;;;;;5088100;27;99295;-75
2023/06/24 14:02:47;;;;;;;3.60;2.97;;;;;;;;;;5089034;27;98213;-75
2023/06/24 14:05:14;;;;;;;3.53;2.78;;;;;;;;;;5090952;27;98904;-77
2023/06/24 14:07:41;;;;;;;3.17;2.97;;;;;;;;;;5088765;27;98682;-75
2023/06/24 14:10:07;;;;;;;3.92;2.85;;;;;;;;;;5088447;27;100076;-75
2023/06/24 14:12:34;;;;;;;2.60;2.50;;;;;;;;;;5087259;27;98948;-75
2023/06/24 14:15:00;;;;;;;2.88;2.60;;;;;;;;;;5087853;27;98271;-75
2023/06/24 14:17:27;;;;;;;3.30;2.63;;;;;;;;;;5087498;27;98408;-75
2023/06/24 14:19:53;;;;;;;5.28;2.80;;;;;;;;;;5093660;27;99919;-75
2023/06/24 14:22:21;;;;;;;3.47;3.17;;;;;;;;;;5093702;27;98253;-75
2023/06/24 14:24:47;;;;;;;2.65;2.55;;;;;;;;;;5088948;27;99106;-76
2023/06/24 14:27:14;;;;;;;2.85;2.65;;;;;;;;;;5093621;27;99913;-75
2023/06/24 14:29:40;;;;;;;4.38;2.45;;;;;;;;;;5091722;27;99801;-74
2023/06/24 14:32:07;;;;;;;4.63;3.00;;;;;;;;;;5089732;27;98825;-75
2023/06/24 14:34:34;;;;;;;5.47;2.88;;;;;;;;;;5088351;27;98902;-75
2023/06/24 14:37:00;;;;;;;9.32;2.80;;;;;;;;;;5087108;27;98469;-75
2023/06/24 14:39:28;;;;;;;6.20;2.78;;;;;;;;;;5086013;27;99051;-75
2023/06/24 14:41:56;;;;;;;3.15;2.85;;;;;;;;;;5087419;27;98323;-75